createdAt,value
2022-08-26T00:00:19.912Z,18.74
2022-08-26T00:03:03.522Z,18.68
2022-08-26T00:05:31.927Z,18.64
2022-08-26T00:08:00.420Z,18.62
2022-08-26T00:10:29.068Z,18.61
2022-08-26T00:12:57.289Z,18.60
2022-08-26T00:15:26.135Z,18.59
2022-08-26T00:17:56.450Z,18.57
2022-08-26T00:20:29.623Z,18.54
2022-08-26T00:22:59.147Z,18.51
2022-08-26T00:25:28.015Z,18.48
2022-08-26T00:27:56.658Z,18.43
2022-08-26T00:30:28.305Z,18.40
2022-08-26T00:32:57.273Z,18.38
2022-08-26T00:35:26.591Z,18.36
2022-08-26T00:37:56.802Z,18.34
2022-08-26T00:40:34.725Z,18.28
2022-08-26T00:43:09.502Z,18.24
2022-08-26T00:45:42.915Z,18.20
2022-08-26T00:48:12.260Z,18.15
2022-08-26T00:50:49.416Z,18.13
2022-08-26T00:53:26.025Z,18.12
2022-08-26T00:56:08.290Z,18.10
2022-08-26T00:58:39.068Z,18.08
2022-08-26T01:05:58.323Z,17.93
2022-08-26T01:08:27.902Z,17.89
2022-08-26T01:10:58.492Z,17.88
2022-08-26T01:13:29.711Z,17.85
2022-08-26T01:16:02.848Z,17.83
2022-08-26T01:18:31.732Z,17.82
2022-08-26T01:21:11.470Z,17.81
2022-08-26T01:23:45.083Z,17.81
2022-08-26T01:26:19.973Z,17.79
2022-08-26T01:28:51.831Z,17.76
2022-08-26T01:31:25.053Z,17.72
2022-08-26T01:34:00.547Z,17.69
2022-08-26T01:36:29.465Z,17.64
2022-08-26T01:38:57.885Z,17.60
2022-08-26T01:41:27.304Z,17.55
2022-08-26T01:43:57.766Z,17.53
2022-08-26T01:46:29.815Z,17.51
2022-08-26T01:49:02.550Z,17.49
2022-08-26T01:51:34.280Z,17.49
2022-08-26T01:54:12.007Z,17.50
2022-08-26T01:56:42.364Z,17.50
2022-08-26T01:59:13.341Z,17.51
2022-08-26T02:01:41.979Z,17.51
2022-08-26T02:04:23.822Z,17.51
2022-08-26T02:06:53.630Z,17.50
2022-08-26T02:09:23.674Z,17.47
2022-08-26T02:11:53.645Z,17.45
2022-08-26T02:14:27.071Z,17.44
2022-08-26T02:16:56.823Z,17.44
2022-08-26T02:19:32.734Z,17.43
2022-08-26T02:22:06.401Z,17.41
2022-08-26T02:24:52.875Z,17.40
2022-08-26T02:27:32.461Z,17.37
2022-08-26T02:30:14.881Z,17.32
2022-08-26T02:32:46.491Z,17.27
2022-08-26T02:35:20.569Z,17.23
2022-08-26T02:37:50.420Z,17.22
2022-08-26T02:40:22.665Z,17.20
2022-08-26T02:42:52.994Z,17.21
2022-08-26T02:45:26.411Z,17.21
2022-08-26T02:47:58.380Z,17.20
2022-08-26T02:50:28.887Z,17.20
2022-08-26T02:52:56.997Z,17.18
2022-08-26T02:55:26.043Z,17.17
2022-08-26T02:57:54.310Z,17.15
2022-08-26T03:00:23.820Z,17.12
2022-08-26T03:02:52.201Z,17.10
2022-08-26T03:05:22.217Z,17.06
2022-08-26T03:07:52.929Z,17.03
2022-08-26T03:10:22.606Z,17.01
2022-08-26T03:12:50.919Z,16.98
2022-08-26T03:15:20.607Z,16.95
2022-08-26T03:17:50.415Z,16.88
2022-08-26T03:20:18.757Z,16.82
2022-08-26T03:22:47.255Z,16.79
2022-08-26T03:25:18.255Z,16.76
2022-08-26T03:27:46.760Z,16.71
2022-08-26T03:30:34.867Z,16.67
2022-08-26T03:33:04.142Z,16.63
2022-08-26T03:35:33.620Z,16.61
2022-08-26T03:38:03.592Z,16.61
2022-08-26T03:40:33.909Z,16.60
2022-08-26T03:43:04.729Z,16.59
2022-08-26T03:45:33.600Z,16.58
2022-08-26T03:48:01.915Z,16.58
2022-08-26T03:50:34.107Z,16.57
2022-08-26T03:53:03.439Z,16.59
2022-08-26T03:55:33.603Z,16.61
2022-08-26T03:58:02.186Z,16.64
2022-08-26T04:00:31.228Z,16.66
2022-08-26T04:02:59.467Z,16.68
2022-08-26T04:05:27.818Z,16.69
2022-08-26T04:07:56.578Z,16.68
2022-08-26T04:10:26.408Z,16.71
2022-08-26T04:13:00.337Z,16.75
2022-08-26T04:15:28.873Z,16.76
2022-08-26T04:17:57.314Z,16.81
2022-08-26T04:20:26.872Z,16.89
2022-08-26T04:22:55.277Z,16.97
2022-08-26T04:25:24.183Z,17.02
2022-08-26T04:27:52.705Z,17.11
2022-08-26T04:30:21.429Z,17.36
2022-08-26T04:32:50.217Z,18.02
2022-08-26T04:35:22.794Z,18.73
2022-08-26T04:37:54.538Z,19.48
2022-08-26T04:40:24.260Z,20.17
2022-08-26T04:42:54.773Z,20.75
2022-08-26T04:45:24.238Z,21.29
2022-08-26T04:47:55.070Z,21.79
2022-08-26T04:50:25.705Z,22.13
2022-08-26T04:52:55.801Z,22.36
2022-08-26T04:55:38.554Z,22.26
2022-08-26T04:58:11.293Z,21.76
2022-08-26T05:00:39.485Z,21.22
2022-08-26T05:03:10.201Z,20.83
2022-08-26T05:05:42.709Z,20.46
2022-08-26T05:08:13.278Z,20.14
2022-08-26T05:10:47.744Z,19.89
2022-08-26T05:13:19.088Z,19.71
2022-08-26T05:15:49.471Z,19.64
2022-08-26T05:18:21.396Z,19.64
2022-08-26T05:20:54.828Z,19.68
2022-08-26T05:23:24.996Z,19.71
2022-08-26T05:25:59.169Z,19.74
2022-08-26T05:28:30.001Z,19.74
2022-08-26T05:30:58.482Z,19.73
2022-08-26T05:33:26.714Z,19.74
2022-08-26T05:35:55.014Z,19.76
2022-08-26T05:38:23.721Z,19.80
2022-08-26T05:40:53.278Z,19.88
2022-08-26T05:43:21.496Z,19.99
2022-08-26T05:45:50.912Z,20.07
2022-08-26T05:48:22.667Z,20.15
2022-08-26T05:50:53.662Z,20.22
2022-08-26T05:53:23.874Z,20.27
2022-08-26T05:55:56.177Z,20.29
2022-08-26T05:58:24.468Z,20.37
2022-08-26T06:00:58.151Z,20.49
2022-08-26T06:03:26.435Z,20.55
2022-08-26T06:05:55.751Z,20.66
2022-08-26T06:08:24.192Z,20.68
2022-08-26T06:10:55.371Z,20.72
2022-08-26T06:13:27.289Z,20.79
2022-08-26T06:16:03.254Z,20.87
2022-08-26T06:18:36.606Z,20.97
2022-08-26T06:21:17.545Z,21.08
2022-08-26T06:24:06.198Z,21.23
2022-08-26T06:26:36.681Z,21.35
2022-08-26T06:29:06.763Z,21.43
2022-08-26T06:31:37.202Z,21.53
2022-08-26T06:34:10.683Z,21.57
2022-08-26T06:36:42.255Z,21.67
2022-08-26T06:39:14.477Z,21.77
2022-08-26T06:41:45.084Z,21.88
2022-08-26T06:44:18.945Z,21.98
2022-08-26T06:46:50.302Z,22.09
2022-08-26T06:49:25.815Z,22.17
2022-08-26T06:51:59.879Z,22.26
2022-08-26T06:54:30.288Z,22.40
2022-08-26T06:56:59.126Z,22.53
2022-08-26T06:59:27.426Z,22.65
2022-08-26T07:01:56.118Z,22.79
2022-08-26T07:04:25.086Z,22.93
2022-08-26T07:06:56.955Z,23.08
2022-08-26T07:09:29.296Z,23.24
2022-08-26T07:11:58.344Z,23.36
2022-08-26T07:14:26.671Z,23.43
2022-08-26T07:16:54.923Z,23.51
2022-08-26T07:19:30.033Z,23.59
2022-08-26T07:22:03.812Z,23.60
2022-08-26T07:24:35.475Z,23.65
2022-08-26T07:27:06.020Z,23.75
2022-08-26T07:29:35.663Z,23.78
2022-08-26T07:32:04.665Z,23.86
2022-08-26T07:34:33.380Z,23.97
2022-08-26T07:37:02.739Z,24.08
2022-08-26T07:39:32.050Z,24.16
2022-08-26T07:42:03.810Z,24.16
2022-08-26T07:44:38.246Z,24.19
2022-08-26T07:47:10.069Z,24.25
2022-08-26T07:49:54.994Z,24.39
2022-08-26T07:52:26.897Z,24.53
2022-08-26T07:55:00.716Z,24.69
2022-08-26T07:57:30.478Z,24.80
2022-08-26T07:59:59.277Z,24.91
2022-08-26T08:02:29.707Z,25.02
2022-08-26T08:04:58.483Z,25.12
2022-08-26T08:07:44.249Z,25.23
2022-08-26T08:10:17.548Z,25.35
2022-08-26T08:12:47.622Z,25.47
2022-08-26T08:15:18.447Z,25.57
2022-08-26T08:17:50.421Z,25.63
2022-08-26T08:20:21.421Z,25.74
2022-08-26T08:22:52.737Z,25.87
2022-08-26T08:25:23.328Z,26.01
2022-08-26T08:27:51.588Z,26.10
2022-08-26T08:30:22.785Z,26.20
2022-08-26T08:32:52.296Z,26.28
2022-08-26T08:35:22.614Z,26.33
2022-08-26T08:37:54.593Z,26.41
2022-08-26T08:40:26.376Z,26.47
2022-08-26T08:43:10.012Z,26.48
2022-08-26T08:45:47.480Z,26.54
2022-08-26T08:48:28.135Z,26.58
2022-08-26T08:51:06.418Z,26.68
2022-08-26T08:53:39.434Z,26.75
2022-08-26T08:56:42.860Z,26.79
2022-08-26T08:59:17.089Z,26.85
2022-08-26T09:01:52.347Z,26.87
2022-08-26T09:04:51.974Z,26.93
2022-08-26T09:07:37.369Z,27.00
2022-08-26T09:10:06.273Z,27.12
2022-08-26T09:12:35.174Z,27.24
2022-08-26T09:15:25.477Z,27.33
2022-08-26T09:18:29.279Z,27.40
2022-08-26T09:21:04.495Z,27.51
2022-08-26T09:23:35.975Z,27.63
2022-08-26T09:26:18.737Z,27.68
2022-08-26T09:28:55.255Z,27.74
2022-08-26T09:31:36.384Z,27.80
2022-08-26T09:34:25.951Z,27.82
2022-08-26T09:36:59.712Z,27.87
2022-08-26T09:39:38.165Z,27.89
2022-08-26T09:42:17.263Z,27.95
2022-08-26T09:45:03.686Z,28.07
2022-08-26T09:48:00.761Z,28.22
2022-08-26T09:50:34.071Z,28.31
2022-08-26T09:53:09.705Z,28.37
2022-08-26T09:55:43.892Z,28.37
2022-08-26T09:58:38.073Z,28.36
2022-08-26T10:01:09.009Z,28.42
2022-08-26T10:03:39.816Z,28.56
2022-08-26T10:06:23.756Z,28.69
2022-08-26T10:08:57.664Z,28.76
2022-08-26T10:11:35.523Z,28.81
2022-08-26T10:14:17.516Z,28.90
2022-08-26T10:17:11.456Z,29.03
2022-08-26T10:19:57.139Z,29.11
2022-08-26T10:22:45.699Z,29.17
2022-08-26T10:25:20.115Z,29.26
2022-08-26T10:28:03.793Z,29.30
2022-08-26T10:30:45.658Z,29.29
2022-08-26T10:33:18.574Z,29.32
2022-08-26T10:35:59.784Z,29.40
2022-08-26T10:38:34.953Z,29.50
2022-08-26T10:41:18.758Z,29.52
2022-08-26T10:43:59.632Z,29.58
2022-08-26T10:46:36.960Z,29.69
2022-08-26T10:49:17.430Z,29.79
2022-08-26T10:52:12.300Z,29.83
2022-08-26T10:55:08.572Z,29.92
2022-08-26T10:58:04.753Z,29.89
2022-08-26T11:00:59.217Z,29.83
2022-08-26T11:03:54.317Z,29.92
2022-08-26T11:06:29.050Z,29.92
2022-08-26T11:08:59.692Z,29.92
2022-08-26T11:11:39.805Z,29.88
2022-08-26T11:14:23.456Z,29.87
2022-08-26T11:16:59.010Z,29.94
2022-08-26T11:19:59.568Z,30.02
2022-08-26T11:22:32.695Z,30.03
2022-08-26T11:25:05.542Z,30.07
2022-08-26T11:27:36.477Z,30.13
2022-08-26T11:30:07.973Z,30.18
2022-08-26T11:32:39.308Z,30.28
2022-08-26T11:35:20.215Z,30.35
2022-08-26T11:37:48.812Z,30.39
2022-08-26T11:40:43.670Z,30.45
2022-08-26T11:43:18.673Z,30.56
2022-08-26T11:46:00.374Z,30.58
2022-08-26T11:48:33.338Z,30.57
2022-08-26T11:51:07.290Z,30.51
2022-08-26T11:53:40.940Z,30.54
2022-08-26T11:56:12.520Z,30.57
2022-08-26T11:58:45.553Z,30.62
2022-08-26T12:01:25.827Z,30.63
2022-08-26T12:03:54.468Z,30.65
2022-08-26T12:06:38.913Z,30.66
2022-08-26T12:09:34.618Z,30.66
2022-08-26T12:12:22.087Z,30.67
2022-08-26T12:15:10.180Z,30.74
2022-08-26T12:17:40.735Z,30.82
2022-08-26T12:20:46.058Z,30.83
2022-08-26T12:23:30.627Z,30.88
2022-08-26T12:26:29.706Z,30.95
2022-08-26T12:29:09.968Z,30.99
2022-08-26T12:31:48.893Z,31.07
2022-08-26T13:52:04.434Z,31.37
2022-08-26T13:54:33.537Z,31.37
2022-08-26T13:57:01.988Z,31.42
2022-08-26T13:59:30.299Z,31.39
2022-08-26T14:01:58.948Z,31.38
2022-08-26T14:04:27.603Z,31.41
2022-08-26T14:06:56.492Z,31.44
2022-08-26T14:09:24.950Z,31.41
2022-08-26T14:11:54.862Z,31.33
2022-08-26T14:14:23.922Z,31.30
2022-08-26T14:16:59.527Z,31.33
2022-08-26T14:19:30.759Z,31.38
2022-08-26T14:22:01.127Z,31.38
2022-08-26T14:24:29.971Z,31.39
2022-08-26T14:26:58.865Z,31.39
2022-08-26T14:29:27.171Z,31.39
2022-08-26T14:31:57.202Z,31.41
2022-08-26T14:34:26.932Z,31.41
2022-08-26T14:36:55.126Z,31.35
2022-08-26T14:39:24.162Z,31.35
2022-08-26T14:41:56.273Z,31.37
2022-08-26T14:44:29.945Z,31.37
2022-08-26T14:47:01.419Z,31.37
2022-08-26T14:49:31.665Z,31.36
2022-08-26T14:51:59.932Z,31.31
2022-08-26T14:54:29.563Z,31.28
2022-08-26T14:57:04.256Z,31.25
2022-08-26T14:59:38.229Z,31.20
2022-08-26T15:02:09.182Z,31.11
2022-08-26T15:04:42.055Z,31.01
2022-08-26T15:07:12.884Z,30.87
2022-08-26T15:09:41.176Z,30.78
2022-08-26T15:12:09.446Z,30.71
2022-08-26T15:14:37.821Z,30.60
2022-08-26T15:17:06.549Z,30.46
2022-08-26T15:19:34.806Z,30.30
2022-08-26T15:22:03.262Z,30.18
2022-08-26T15:24:31.763Z,30.06
2022-08-26T15:27:00.131Z,29.94
2022-08-26T15:29:28.454Z,29.85
2022-08-26T15:31:57.384Z,29.78
2022-08-26T15:34:27.175Z,29.69
2022-08-26T15:36:55.449Z,29.64
2022-08-26T15:39:23.824Z,29.58
2022-08-26T15:41:52.022Z,29.51
2022-08-26T15:44:20.757Z,29.46
2022-08-26T15:46:50.220Z,29.42
2022-08-26T15:49:18.830Z,29.38
2022-08-26T15:51:50.518Z,29.35
2022-08-26T15:54:22.308Z,29.31
2022-08-26T15:56:52.375Z,29.27
2022-08-26T15:59:21.897Z,29.25
2022-08-26T16:01:52.223Z,29.19
2022-08-26T16:04:21.095Z,29.13
2022-08-26T16:06:51.725Z,29.07
2022-08-26T16:09:24.260Z,29.03
2022-08-26T16:11:57.249Z,28.97
2022-08-26T16:14:30.393Z,28.93
2022-08-26T16:16:58.724Z,28.87
2022-08-26T16:19:27.128Z,28.80
2022-08-26T16:21:57.338Z,28.73
2022-08-26T16:24:30.387Z,28.63
2022-08-26T16:26:59.256Z,28.53
2022-08-26T16:29:27.928Z,28.43
2022-08-26T16:31:56.622Z,28.35
2022-08-26T16:34:25.015Z,28.28
2022-08-26T16:36:53.350Z,28.22
2022-08-26T16:39:21.669Z,28.14
2022-08-26T16:41:50.571Z,28.07
2022-08-26T16:44:19.236Z,27.99
2022-08-26T16:46:48.148Z,27.92
2022-08-26T16:49:16.637Z,27.85
2022-08-26T16:51:45.076Z,27.78
2022-08-26T16:54:13.336Z,27.72
2022-08-26T16:56:41.770Z,27.62
2022-08-26T16:59:11.758Z,27.54
2022-08-26T17:01:40.354Z,27.46
2022-08-26T17:04:08.906Z,27.40
2022-08-26T17:06:37.370Z,27.35
2022-08-26T17:09:05.977Z,27.28
2022-08-26T17:11:35.521Z,27.19
2022-08-26T17:14:05.247Z,27.10
2022-08-26T17:16:33.779Z,27.01
2022-08-26T17:19:03.015Z,26.89
2022-08-26T17:21:33.688Z,26.74
2022-08-26T17:24:04.552Z,26.61
2022-08-26T17:26:33.254Z,26.48
2022-08-26T17:29:01.655Z,26.34
2022-08-26T17:31:30.074Z,26.20
2022-08-26T17:33:58.434Z,26.03
2022-08-26T17:36:27.939Z,25.87
2022-08-26T17:38:58.714Z,25.71
2022-08-26T17:41:27.478Z,25.53
2022-08-26T17:43:56.161Z,25.40
2022-08-26T17:46:24.761Z,25.28
2022-08-26T17:48:53.335Z,25.15
2022-08-26T17:51:23.005Z,25.01
2022-08-26T17:53:52.131Z,24.90
2022-08-26T17:56:25.034Z,24.78
2022-08-26T17:59:02.391Z,24.66
2022-08-26T18:01:32.581Z,24.53
2022-08-26T18:04:01.774Z,24.40
2022-08-26T18:06:30.747Z,24.29
2022-08-26T18:09:00.667Z,24.22
2022-08-26T18:11:29.734Z,24.14
2022-08-26T18:13:58.772Z,24.06
2022-08-26T18:16:27.651Z,23.99
2022-08-26T18:18:56.034Z,23.94
2022-08-26T18:21:27.823Z,23.89
2022-08-26T18:23:56.547Z,23.85
2022-08-26T18:26:31.286Z,23.77
2022-08-26T18:28:59.813Z,23.71
2022-08-26T18:31:28.365Z,23.63
2022-08-26T18:33:59.684Z,23.58
2022-08-26T18:36:35.041Z,23.52
2022-08-26T18:39:05.510Z,23.43
2022-08-26T18:41:40.867Z,23.34
2022-08-26T18:44:13.473Z,23.26
2022-08-26T18:46:43.694Z,23.21
2022-08-26T18:49:13.791Z,23.13
2022-08-26T18:51:42.735Z,23.08
2022-08-26T18:54:11.809Z,23.05
2022-08-26T18:56:40.725Z,23.01
2022-08-26T18:59:09.785Z,22.96
2022-08-26T19:01:40.523Z,22.91
2022-08-26T19:04:14.049Z,22.85
2022-08-26T19:06:50.747Z,22.76
2022-08-26T19:09:20.321Z,22.67
2022-08-26T19:11:50.066Z,22.58
2022-08-26T19:14:19.062Z,22.53
2022-08-26T19:16:49.666Z,22.48
2022-08-26T19:19:19.408Z,22.43
2022-08-26T19:21:47.776Z,22.37
2022-08-26T19:24:17.728Z,22.30
2022-08-26T19:26:49.171Z,22.23
2022-08-26T19:29:22.158Z,22.18
2022-08-26T19:31:50.627Z,22.13
2022-08-26T19:34:20.759Z,22.08
2022-08-26T19:36:49.663Z,22.05
2022-08-26T19:39:17.791Z,21.98
2022-08-26T19:41:46.070Z,21.92
2022-08-26T19:44:38.113Z,21.90
2022-08-26T19:47:08.159Z,21.85
2022-08-26T19:49:37.063Z,21.79
2022-08-26T19:52:08.029Z,21.72
2022-08-26T19:54:36.355Z,21.66
2022-08-26T19:57:06.269Z,21.62
2022-08-26T19:59:36.281Z,21.56
2022-08-26T20:02:10.051Z,21.47
2022-08-26T20:04:39.811Z,21.43
2022-08-26T20:07:09.193Z,21.38
2022-08-26T20:09:38.452Z,21.33
2022-08-26T20:12:07.916Z,21.29
2022-08-26T20:14:38.793Z,21.29
2022-08-26T20:17:07.111Z,21.23
2022-08-26T20:19:54.106Z,21.13
2022-08-26T20:22:22.927Z,21.07
2022-08-26T20:24:52.259Z,20.97
2022-08-26T20:27:34.360Z,20.94
2022-08-26T20:30:08.728Z,20.90
2022-08-26T20:32:38.604Z,20.90
2022-08-26T20:35:09.669Z,20.90
2022-08-26T20:37:39.604Z,20.90
2022-08-26T20:40:10.767Z,20.86
2022-08-26T20:42:39.261Z,20.84
2022-08-26T20:45:08.729Z,20.82
2022-08-26T20:47:37.224Z,20.79
2022-08-26T20:50:06.605Z,20.76
2022-08-26T20:52:35.033Z,20.72
2022-08-26T20:55:03.840Z,20.70
2022-08-26T20:57:33.040Z,20.67
2022-08-26T21:00:01.361Z,20.63
2022-08-26T21:02:29.827Z,20.60
2022-08-26T21:04:58.253Z,20.58
2022-08-26T21:07:29.855Z,20.57
2022-08-26T21:09:58.222Z,20.54
2022-08-26T21:12:27.789Z,20.54
2022-08-26T21:14:56.034Z,20.51
2022-08-26T21:17:24.356Z,20.48
2022-08-26T21:19:53.254Z,20.48
2022-08-26T21:22:22.308Z,20.46
2022-08-26T21:24:50.710Z,20.43
2022-08-26T21:27:26.177Z,20.41
2022-08-26T21:29:56.247Z,20.39
2022-08-26T21:32:24.577Z,20.36
2022-08-26T21:34:57.349Z,20.34
2022-08-26T21:37:27.312Z,20.32
2022-08-26T21:39:57.598Z,20.31
2022-08-26T21:42:27.014Z,20.29
2022-08-26T21:44:55.416Z,20.27
2022-08-26T21:47:24.571Z,20.26
2022-08-26T21:49:53.696Z,20.25
2022-08-26T21:52:22.762Z,20.21
2022-08-26T21:54:51.029Z,20.18
2022-08-26T21:57:19.537Z,20.16
2022-08-26T21:59:48.022Z,20.13
2022-08-26T22:02:16.724Z,20.11
2022-08-26T22:04:48.814Z,20.08
2022-08-26T22:07:19.261Z,20.08
2022-08-26T22:09:47.897Z,20.08
2022-08-26T22:12:18.446Z,20.06
2022-08-26T22:14:47.177Z,20.05
2022-08-26T22:17:16.114Z,20.02
2022-08-26T22:19:46.488Z,19.98
2022-08-26T22:22:15.171Z,19.96
2022-08-26T22:24:43.964Z,19.92
2022-08-26T22:27:12.837Z,19.90
2022-08-26T22:29:41.400Z,19.90
2022-08-26T22:32:09.879Z,19.89
2022-08-26T22:34:38.126Z,19.89
2022-08-26T22:37:06.654Z,19.90
2022-08-26T22:39:35.055Z,19.88
2022-08-26T22:42:04.745Z,19.85
2022-08-26T22:44:33.349Z,19.82
2022-08-26T22:47:01.874Z,19.76
2022-08-26T22:49:30.084Z,19.70
2022-08-26T22:51:58.484Z,19.68
2022-08-26T22:54:27.662Z,19.67
2022-08-26T22:56:56.107Z,19.64
2022-08-26T22:59:25.104Z,19.63
2022-08-26T23:01:57.068Z,19.62
2022-08-26T23:04:27.979Z,19.60
2022-08-26T23:06:56.053Z,19.56
2022-08-26T23:09:24.547Z,19.53
2022-08-26T23:11:56.053Z,19.50
2022-08-26T23:14:25.978Z,19.47
2022-08-26T23:16:54.406Z,19.43
2022-08-26T23:19:23.084Z,19.38
2022-08-26T23:21:52.004Z,19.36
2022-08-26T23:24:21.225Z,19.33
2022-08-26T23:26:49.466Z,19.30
2022-08-26T23:29:18.087Z,19.29
2022-08-26T23:31:46.750Z,19.25
2022-08-26T23:34:33.808Z,19.22
2022-08-26T23:37:03.254Z,19.17
2022-08-26T23:39:36.793Z,19.14
2022-08-26T23:42:06.813Z,19.11
2022-08-26T23:44:35.120Z,19.06
2022-08-26T23:47:05.209Z,19.01
2022-08-26T23:49:34.718Z,18.96
2022-08-26T23:52:23.467Z,18.92
2022-08-26T23:54:53.005Z,18.89
2022-08-26T23:57:23.798Z,18.89
2022-08-26T23:59:53.391Z,18.88
